Time;durP1;ratioP1;P1;durP2;ratioP2;P2;SDS_P1;SDS_P2;PMS_P1;PMS_P2;Temp;Humidity;BMP_temperature;BMP_pressure;BME280_temperature;BME280_humidity;BME280_pressure;Samples;Min_cycle;Max_cycle;Signal;HPM_P1;HPM_P2
2021/12/28 00:02:07;;;;;;;;;;;6.70;92.80;;;;;;5063664;28;20081;-73
2021/12/28 00:04:33;;;;;;;;;;;6.70;92.90;;;;;;5064965;28;20428;-73
2021/12/28 00:06:58;;;;;;;;;;;6.70;92.90;;;;;;5060733;28;20148;-73
2021/12/28 00:09:24;;;;;;;;;;;6.80;93.00;;;;;;5061659;28;19965;-73
2021/12/28 00:11:50;;;;;;;;;;;6.90;93.00;;;;;;5066202;28;19934;-73
2021/12/28 00:14:16;;;;;;;;;;;6.90;93.00;;;;;;5068541;28;19949;-73
2021/12/28 00:19:25;;;;;;;;;;;7.00;93.00;;;;;;5068369;28;19959;-73
2021/12/28 00:21:51;;;;;;;;;;;7.00;92.90;;;;;;5061653;28;19935;-73
2021/12/28 00:24:16;;;;;;;;;;;6.90;92.70;;;;;;5060470;28;19957;-73
2021/12/28 00:26:42;;;;;;;;;;;6.90;92.60;;;;;;5067845;28;20589;-73
2021/12/28 00:29:08;;;;;;;;;;;6.90;92.50;;;;;;5068143;28;19960;-73
2021/12/28 00:31:33;;;;;;;;;;;6.90;92.40;;;;;;5068444;28;20405;-73
2021/12/28 00:33:59;;;;;;;;;;;6.80;92.20;;;;;;5049558;28;20457;-73
2021/12/28 00:36:24;;;;;;;;;;;6.60;92.40;;;;;;5048372;28;20144;-73
2021/12/28 00:38:50;;;;;;;;;;;6.50;92.80;;;;;;5048174;28;20507;-73
2021/12/28 00:41:16;;;;;;;;;;;6.40;93.20;;;;;;5048414;28;19939;-73
2021/12/28 00:43:41;;;;;;;;;;;6.30;93.40;;;;;;5047272;28;19938;-72
2021/12/28 00:46:07;;;;;;;;;;;6.30;93.50;;;;;;5048476;28;19957;-73
2021/12/28 00:48:33;;;;;;;;;;;6.20;93.50;;;;;;5048337;28;19942;-73
2021/12/28 00:50:59;;;;;;;;;;;6.10;93.70;;;;;;5047885;28;19951;-73
2021/12/28 00:53:25;;;;;;;;;;;6.10;93.60;;;;;;5048485;28;19940;-73
2021/12/28 00:55:51;;;;;;;;;;;6.00;93.70;;;;;;5048510;28;19950;-73
2021/12/28 00:58:16;;;;;;;;;;;6.00;94.00;;;;;;5048457;28;20305;-73
2021/12/28 01:00:43;;;;;;;;;;;6.00;94.10;;;;;;5047686;28;19958;-73
2021/12/28 01:03:09;;;;;;;;;;;6.00;94.30;;;;;;5047271;28;19943;-73
2021/12/28 01:05:36;;;;;;;;;;;6.00;94.30;;;;;;5047469;28;20209;-73
2021/12/28 01:08:01;;;;;;;;;;;6.10;94.40;;;;;;5039174;28;20197;-73
2021/12/28 01:10:32;;;;;;;;;;;6.10;94.40;;;;;;5047418;28;20409;-73
2021/12/28 01:12:58;;;;;;;;;;;6.20;94.50;;;;;;5047338;28;20175;-73
2021/12/28 01:15:24;;;;;;;;;;;6.20;94.60;;;;;;5045983;28;19944;-73
2021/12/28 01:17:50;;;;;;;;;;;6.20;94.60;;;;;;5057189;28;20471;-73
2021/12/28 01:20:16;;;;;;;;;;;6.30;94.60;;;;;;5066906;28;19943;-73
2021/12/28 01:22:42;;;;;;;;;;;6.30;94.60;;;;;;5052456;28;20240;-73
2021/12/28 01:25:09;;;;;;;;;;;6.40;94.70;;;;;;5047035;28;19933;-73
2021/12/28 01:27:34;;;;;;;;;;;6.40;94.70;;;;;;5062687;28;20206;-74
2021/12/28 01:30:00;;;;;;;;;;;6.50;94.60;;;;;;5065292;28;19949;-73
2021/12/28 01:32:26;;;;;;;;;;;6.50;94.50;;;;;;5065904;28;19946;-73
2021/12/28 01:34:52;;;;;;;;;;;6.40;94.50;;;;;;5066397;28;20299;-73
2021/12/28 01:37:18;;;;;;;;;;;6.40;94.50;;;;;;5065607;28;20399;-73
2021/12/28 01:39:43;;;;;;;;;;;6.30;94.50;;;;;;5066239;28;19939;-73
2021/12/28 01:42:09;;;;;;;;;;;6.20;94.60;;;;;;5066546;28;19954;-73
2021/12/28 01:44:35;;;;;;;;;;;6.20;94.70;;;;;;5066906;28;20421;-73
2021/12/28 01:47:01;;;;;;;;;;;6.20;94.80;;;;;;5066942;28;19998;-73
2021/12/28 01:49:27;;;;;;;;;;;6.20;94.80;;;;;;5054593;28;20081;-73
2021/12/28 01:51:53;;;;;;;;;;;6.20;94.80;;;;;;5046692;28;20028;-73
2021/12/28 01:54:19;;;;;;;;;;;6.10;94.80;;;;;;5060798;28;19951;-73
2021/12/28 01:56:45;;;;;;;;;;;6.20;95.00;;;;;;5067027;28;19933;-73
2021/12/28 01:59:12;;;;;;;;;;;6.20;94.90;;;;;;5048262;28;19994;-73
2021/12/28 02:01:38;;;;;;;;;;;6.20;95.00;;;;;;5046117;28;19937;-73
2021/12/28 02:04:21;;;;;;;;;;;6.20;94.90;;;;;;5044936;28;19961;-73
2021/12/28 02:06:47;;;;;;;;;;;6.20;94.90;;;;;;5049919;28;19935;-73
2021/12/28 02:09:13;;;;;;;;;;;6.20;94.90;;;;;;5061780;28;20446;-73
2021/12/28 02:11:39;;;;;;;;;;;6.20;94.90;;;;;;5056366;28;19935;-73
2021/12/28 02:14:08;;;;;;;;;;;6.20;94.80;;;;;;5046820;28;20407;-73
2021/12/28 02:16:38;;;;;;;;;;;6.20;94.90;;;;;;5045076;28;19970;-73
2021/12/28 02:19:05;;;;;;;;;;;6.20;94.90;;;;;;5046069;28;19975;-73
2021/12/28 02:21:31;;;;;;;;;;;6.20;94.90;;;;;;5046117;28;20304;-73
2021/12/28 02:24:00;;;;;;;;;;;6.20;94.90;;;;;;5046813;28;19933;-73
2021/12/28 02:26:26;;;;;;;;;;;6.20;95.00;;;;;;5066343;28;19933;-73
2021/12/28 02:28:52;;;;;;;;;;;6.20;95.00;;;;;;5060455;28;19960;-72
2021/12/28 02:31:18;;;;;;;;;;;6.20;95.10;;;;;;5045939;28;19937;-73
2021/12/28 02:33:44;;;;;;;;;;;6.30;95.00;;;;;;5045804;28;19998;-73
2021/12/28 02:36:10;;;;;;;;;;;6.30;95.00;;;;;;5045770;28;19932;-73
2021/12/28 02:38:35;;;;;;;;;;;6.30;95.00;;;;;;5056346;28;19948;-73
2021/12/28 02:41:02;;;;;;;;;;;6.30;94.90;;;;;;5066255;28;19932;-73
2021/12/28 02:43:27;;;;;;;;;;;6.30;94.90;;;;;;5051865;28;20068;-73
2021/12/28 02:45:58;;;;;;;;;;;6.30;94.80;;;;;;5046347;28;20043;-73
2021/12/28 02:48:27;;;;;;;;;;;6.30;94.70;;;;;;5044248;28;19933;-73
2021/12/28 02:50:55;;;;;;;;;;;6.40;94.70;;;;;;5045875;28;19937;-73
2021/12/28 02:53:22;;;;;;;;;;;6.40;94.70;;;;;;5046071;28;20220;-73
2021/12/28 02:55:49;;;;;;;;;;;6.40;94.70;;;;;;5050401;28;19943;-73
2021/12/28 02:58:31;;;;;;;;;;;6.40;94.60;;;;;;5066288;28;19939;-73
2021/12/28 03:01:10;;;;;;;;;;;6.50;94.60;;;;;;5066249;28;20030;-73
2021/12/28 03:03:36;;;;;;;;;;;6.70;94.70;;;;;;5066541;28;20020;-73
2021/12/28 03:06:03;;;;;;;;;;;6.80;94.60;;;;;;5065332;28;19944;-73
2021/12/28 03:08:30;;;;;;;;;;;6.90;94.50;;;;;;5060320;28;20027;-73
2021/12/28 03:10:57;;;;;;;;;;;6.90;94.30;;;;;;5047617;28;19993;-74
2021/12/28 03:13:24;;;;;;;;;;;7.00;94.10;;;;;;5046395;28;19949;-73
2021/12/28 03:15:50;;;;;;;;;;;6.80;93.60;;;;;;5046665;28;20077;-73
2021/12/28 03:18:16;;;;;;;;;;;6.70;93.50;;;;;;5046370;28;20044;-73
2021/12/28 03:20:41;;;;;;;;;;;6.50;93.40;;;;;;5046781;28;19941;-73
2021/12/28 03:23:07;;;;;;;;;;;6.50;93.50;;;;;;5054128;28;19941;-73
2021/12/28 03:25:32;;;;;;;;;;;6.40;93.60;;;;;;5066297;28;19936;-73
2021/12/28 03:28:00;;;;;;;;;;;6.60;93.70;;;;;;5054635;28;19951;-73
2021/12/28 03:30:25;;;;;;;;;;;6.70;93.70;;;;;;5045745;28;19958;-73
2021/12/28 03:32:51;;;;;;;;;;;6.80;93.70;;;;;;5045768;28;20317;-73
2021/12/28 03:35:17;;;;;;;;;;;6.90;93.50;;;;;;5045983;28;19944;-73
2021/12/28 03:37:43;;;;;;;;;;;7.00;93.30;;;;;;5045870;28;20030;-73
2021/12/28 03:40:10;;;;;;;;;;;7.10;93.10;;;;;;5044354;28;20351;-73
2021/12/28 03:42:35;;;;;;;;;;;7.20;92.90;;;;;;5045494;28;20417;-73
2021/12/28 03:45:01;;;;;;;;;;;7.00;92.40;;;;;;5049258;28;20029;-73
2021/12/28 03:47:27;;;;;;;;;;;6.70;92.40;;;;;;5070348;28;19986;-73
2021/12/28 03:49:52;;;;;;;;;;;6.60;92.60;;;;;;5069875;28;20319;-73
2021/12/28 03:52:18;;;;;;;;;;;6.60;92.80;;;;;;5070460;28;19931;-73
2021/12/28 03:54:43;;;;;;;;;;;6.50;92.70;;;;;;5070648;28;19955;-74
2021/12/28 03:57:09;;;;;;;;;;;6.50;92.90;;;;;;5069981;28;19937;-74
2021/12/28 03:59:35;;;;;;;;;;;6.60;93.00;;;;;;5057190;28;19955;-74
2021/12/28 04:02:00;;;;;;;;;;;6.60;93.00;;;;;;5050138;28;19954;-74
2021/12/28 04:04:26;;;;;;;;;;;6.70;93.00;;;;;;5065361;28;20421;-74
2021/12/28 04:06:51;;;;;;;;;;;6.70;93.00;;;;;;5066545;28;20318;-74
2021/12/28 04:09:34;;;;;;;;;;;6.90;93.10;;;;;;5065567;28;20338;-74
2021/12/28 04:11:59;;;;;;;;;;;6.90;93.00;;;;;;5065656;28;19955;-74
2021/12/28 04:14:25;;;;;;;;;;;7.00;92.80;;;;;;5049238;28;19962;-74
2021/12/28 04:16:50;;;;;;;;;;;7.10;92.60;;;;;;5055692;28;19944;-74
2021/12/28 04:19:16;;;;;;;;;;;7.00;92.20;;;;;;5068550;28;20532;-74
2021/12/28 04:21:41;;;;;;;;;;;6.90;92.00;;;;;;5059272;28;20352;-74
2021/12/28 04:24:07;;;;;;;;;;;6.70;92.10;;;;;;5039584;28;20499;-74
2021/12/28 04:26:33;;;;;;;;;;;6.80;92.20;;;;;;5040865;28;19939;-74
2021/12/28 04:28:58;;;;;;;;;;;6.70;92.20;;;;;;5048595;28;20018;-74
2021/12/28 04:31:24;;;;;;;;;;;6.80;92.30;;;;;;5063555;28;20357;-74
2021/12/28 04:33:49;;;;;;;;;;;6.70;92.30;;;;;;5057219;28;19944;-74
2021/12/28 04:36:15;;;;;;;;;;;6.80;92.40;;;;;;5066724;28;19945;-74
2021/12/28 04:38:42;;;;;;;;;;;6.70;92.30;;;;;;5066303;28;20084;-74
2021/12/28 04:41:08;;;;;;;;;;;6.70;92.40;;;;;;5048437;28;19933;-74
2021/12/28 04:43:34;;;;;;;;;;;6.80;92.60;;;;;;5052303;28;19942;-74
2021/12/28 04:46:00;;;;;;;;;;;6.80;92.60;;;;;;5067895;28;19940;-74
2021/12/28 04:48:26;;;;;;;;;;;6.90;92.50;;;;;;5059623;28;19941;-74
2021/12/28 04:50:51;;;;;;;;;;;6.90;92.20;;;;;;5048040;28;19946;-74
2021/12/28 04:53:17;;;;;;;;;;;6.70;91.80;;;;;;5054308;28;19943;-74
2021/12/28 04:55:44;;;;;;;;;;;6.50;91.90;;;;;;5046757;28;19944;-74
2021/12/28 04:58:10;;;;;;;;;;;6.40;92.30;;;;;;5060729;28;19947;-74
2021/12/28 05:00:36;;;;;;;;;;;6.30;92.50;;;;;;5068451;28;20417;-74
2021/12/28 05:03:02;;;;;;;;;;;6.40;92.70;;;;;;5067347;28;19964;-74
2021/12/28 05:05:28;;;;;;;;;;;6.50;92.80;;;;;;5067134;28;19946;-74
2021/12/28 05:07:54;;;;;;;;;;;6.60;92.70;;;;;;5041614;28;19937;-74
2021/12/28 05:10:20;;;;;;;;;;;6.70;92.60;;;;;;5047506;28;19946;-75
2021/12/28 05:12:46;;;;;;;;;;;6.80;92.40;;;;;;5048222;28;19986;-74
2021/12/28 05:15:11;;;;;;;;;;;6.90;92.30;;;;;;5054040;28;19943;-74
2021/12/28 05:17:37;;;;;;;;;;;6.80;92.20;;;;;;5067331;28;19938;-74
2021/12/28 05:20:03;;;;;;;;;;;6.70;91.90;;;;;;5067288;28;19946;-74
2021/12/28 05:22:29;;;;;;;;;;;6.60;92.10;;;;;;5054920;28;20280;-74
2021/12/28 05:24:55;;;;;;;;;;;6.60;92.00;;;;;;5047508;28;19934;-74
2021/12/28 05:27:20;;;;;;;;;;;6.40;92.20;;;;;;5047343;28;20259;-74
2021/12/28 05:29:46;;;;;;;;;;;6.40;92.20;;;;;;5062762;28;20391;-74
2021/12/28 05:32:11;;;;;;;;;;;6.30;92.70;;;;;;5067536;28;20420;-74
2021/12/28 05:34:37;;;;;;;;;;;6.20;93.00;;;;;;5047858;28;19945;-74
2021/12/28 05:37:02;;;;;;;;;;;6.10;93.60;;;;;;5049142;28;19940;-74
2021/12/28 05:39:28;;;;;;;;;;;6.10;93.90;;;;;;5066512;28;19947;-73
2021/12/28 05:41:53;;;;;;;;;;;6.10;94.20;;;;;;5066469;28;20032;-73
2021/12/28 05:44:19;;;;;;;;;;;6.10;94.40;;;;;;5067134;28;20020;-74
2021/12/28 05:46:45;;;;;;;;;;;6.10;94.40;;;;;;5066479;28;19940;-74
2021/12/28 05:49:11;;;;;;;;;;;6.10;94.50;;;;;;5048157;28;19941;-74
2021/12/28 05:51:36;;;;;;;;;;;6.20;94.50;;;;;;5046386;28;19941;-74
2021/12/28 05:54:02;;;;;;;;;;;6.20;94.50;;;;;;5043453;28;19949;-74
2021/12/28 05:56:28;;;;;;;;;;;6.20;94.50;;;;;;5051226;28;19949;-73
2021/12/28 05:58:53;;;;;;;;;;;6.30;94.50;;;;;;5045249;28;20365;-74
2021/12/28 06:01:19;;;;;;;;;;;6.40;94.40;;;;;;5062498;28;20310;-74
2021/12/28 06:03:44;;;;;;;;;;;6.40;94.40;;;;;;5054820;28;20030;-74
2021/12/28 06:06:10;;;;;;;;;;;6.50;94.40;;;;;;5045052;28;19947;-74
2021/12/28 06:08:35;;;;;;;;;;;6.60;94.40;;;;;;5039667;28;19964;-74
2021/12/28 06:11:03;;;;;;;;;;;6.70;94.20;;;;;;5062437;28;19951;-74
2021/12/28 06:13:29;;;;;;;;;;;6.70;94.10;;;;;;5047974;28;19940;-74
2021/12/28 06:15:54;;;;;;;;;;;6.90;94.10;;;;;;5045170;28;20308;-72
2021/12/28 06:18:20;;;;;;;;;;;6.90;93.80;;;;;;5054774;28;19940;-73
2021/12/28 06:20:45;;;;;;;;;;;6.80;93.50;;;;;;5051555;28;20271;-73
2021/12/28 06:23:11;;;;;;;;;;;6.90;93.30;;;;;;5043476;28;19988;-72
2021/12/28 06:25:37;;;;;;;;;;;6.70;92.90;;;;;;5042748;28;20394;-72
2021/12/28 06:28:04;;;;;;;;;;;6.60;92.90;;;;;;5043299;28;19948;-73
2021/12/28 06:30:30;;;;;;;;;;;6.50;92.80;;;;;;5041180;28;19962;-72
2021/12/28 06:32:55;;;;;;;;;;;6.40;92.70;;;;;;5053110;28;19954;-72
2021/12/28 06:35:21;;;;;;;;;;;6.20;92.60;;;;;;5049676;28;20002;-72
2021/12/28 06:37:47;;;;;;;;;;;6.20;93.00;;;;;;5050835;28;19953;-72
2021/12/28 06:40:12;;;;;;;;;;;6.20;93.40;;;;;;5051969;28;19994;-72
2021/12/28 06:42:38;;;;;;;;;;;6.20;93.70;;;;;;5039216;28;20003;-73
2021/12/28 06:45:04;;;;;;;;;;;6.30;94.00;;;;;;5047376;28;19957;-72
2021/12/28 06:47:30;;;;;;;;;;;6.60;94.20;;;;;;5036873;28;19948;-72
2021/12/28 06:49:55;;;;;;;;;;;6.70;93.80;;;;;;5034812;28;19958;-72
2021/12/28 06:52:21;;;;;;;;;;;6.60;93.40;;;;;;5037977;28;19945;-72
2021/12/28 06:54:46;;;;;;;;;;;6.60;93.20;;;;;;5038650;28;20454;-75
2021/12/28 06:57:12;;;;;;;;;;;6.80;93.30;;;;;;5040395;28;19947;-81
2021/12/28 06:59:43;;;;;;;;;;;7.00;93.30;;;;;;5038574;28;19945;-75
2021/12/28 07:02:09;;;;;;;;;;;7.20;93.00;;;;;;5042043;28;19947;-77
2021/12/28 07:04:35;;;;;;;;;;;7.50;92.70;;;;;;5037794;28;19986;-75
2021/12/28 07:07:01;;;;;;;;;;;7.70;91.90;;;;;;5029822;28;19983;-72
2021/12/28 07:09:26;;;;;;;;;;;7.80;90.80;;;;;;5041049;28;20045;-82
2021/12/28 07:11:52;;;;;;;;;;;8.00;90.50;;;;;;5044589;28;20046;-72
2021/12/28 07:14:17;;;;;;;;;;;8.10;89.80;;;;;;5038618;28;19945;-73
2021/12/28 07:16:43;;;;;;;;;;;8.20;89.00;;;;;;5037353;28;19987;-73
2021/12/28 07:19:10;;;;;;;;;;;8.20;88.60;;;;;;5028247;28;20036;-73
2021/12/28 07:21:36;;;;;;;;;;;8.20;88.40;;;;;;5042296;28;20229;-73
2021/12/28 07:24:02;;;;;;;;;;;8.20;88.10;;;;;;5036004;28;19951;-72
2021/12/28 07:26:28;;;;;;;;;;;8.20;87.80;;;;;;5042093;28;20445;-72
2021/12/28 07:28:54;;;;;;;;;;;8.30;88.00;;;;;;5055266;22;19959;-72
2021/12/28 07:31:21;;;;;;;;;;;8.40;87.70;;;;;;5061050;28;20528;-73
2021/12/28 07:33:47;;;;;;;;;;;8.40;87.30;;;;;;5055491;28;19952;-72
2021/12/28 07:36:12;;;;;;;;;;;8.40;87.30;;;;;;5071033;28;19947;-73
2021/12/28 07:38:38;;;;;;;;;;;8.30;87.50;;;;;;5062039;28;19947;-73
2021/12/28 07:41:03;;;;;;;;;;;8.20;87.80;;;;;;5065593;28;19948;-72
2021/12/28 07:43:29;;;;;;;;;;;8.30;87.70;;;;;;5053584;28;19956;-72
2021/12/28 07:45:54;;;;;;;;;;;8.20;87.80;;;;;;5058880;28;20059;-72
2021/12/28 07:48:20;;;;;;;;;;;8.10;88.10;;;;;;5062047;28;20448;-72
2021/12/28 07:50:45;;;;;;;;;;;8.30;88.10;;;;;;5060601;28;20691;-72
2021/12/28 07:53:11;;;;;;;;;;;8.20;88.10;;;;;;5057283;28;19997;-73
2021/12/28 07:55:36;;;;;;;;;;;8.30;88.30;;;;;;5062151;28;20005;-73
2021/12/28 07:58:02;;;;;;;;;;;8.40;88.20;;;;;;5067569;28;19944;-73
2021/12/28 08:00:28;;;;;;;;;;;8.20;87.80;;;;;;5081214;28;19989;-72
2021/12/28 08:02:54;;;;;;;;;;;8.20;87.90;;;;;;5061883;28;19949;-73
2021/12/28 08:05:20;;;;;;;;;;;8.20;88.10;;;;;;5063693;28;19950;-73
2021/12/28 08:07:46;;;;;;;;;;;8.20;88.20;;;;;;5049182;28;19948;-73
2021/12/28 08:10:12;;;;;;;;;;;8.00;88.70;;;;;;5063756;28;19962;-73
2021/12/28 08:12:38;;;;;;;;;;;7.70;89.50;;;;;;5054221;28;19954;-72
2021/12/28 08:15:04;;;;;;;;;;;7.50;90.60;;;;;;5054424;28;19931;-73
2021/12/28 08:17:30;;;;;;;;;;;7.40;91.00;;;;;;5049607;28;20408;-73
2021/12/28 08:19:55;;;;;;;;;;;7.50;91.20;;;;;;5054795;28;19977;-73
2021/12/28 08:22:21;;;;;;;;;;;7.50;91.00;;;;;;5064604;28;19940;-73
2021/12/28 08:24:47;;;;;;;;;;;7.40;91.10;;;;;;5065837;28;19927;-73
2021/12/28 08:27:12;;;;;;;;;;;7.40;91.30;;;;;;5065292;28;19940;-73
2021/12/28 08:29:38;;;;;;;;;;;7.30;91.80;;;;;;5046034;28;19958;-73
2021/12/28 08:32:03;;;;;;;;;;;7.20;92.10;;;;;;5035865;28;19950;-73
2021/12/28 08:34:29;;;;;;;;;;;7.30;92.40;;;;;;5049993;28;20384;-73
2021/12/28 08:36:54;;;;;;;;;;;7.50;92.60;;;;;;5042889;28;19948;-73
2021/12/28 08:39:20;;;;;;;;;;;7.60;92.20;;;;;;5049923;28;19937;-73
2021/12/28 08:41:46;;;;;;;;;;;7.60;92.10;;;;;;5040958;28;19939;-73
2021/12/28 08:44:11;;;;;;;;;;;7.50;92.10;;;;;;5049185;28;19939;-73
2021/12/28 08:46:39;;;;;;;;;;;7.50;92.10;;;;;;5037671;28;20386;-73
2021/12/28 08:49:05;;;;;;;;;;;7.70;92.20;;;;;;5049398;28;19939;-73
2021/12/28 08:51:30;;;;;;;;;;;7.80;91.90;;;;;;5042836;28;19940;-73
2021/12/28 08:53:57;;;;;;;;;;;7.80;91.40;;;;;;5047178;28;19941;-73
2021/12/28 08:56:22;;;;;;;;;;;7.80;91.50;;;;;;5037370;28;20033;-73
2021/12/28 08:58:48;;;;;;;;;;;7.80;91.50;;;;;;5040095;28;20464;-73
2021/12/28 09:01:13;;;;;;;;;;;7.70;91.30;;;;;;5052177;28;19966;-73
2021/12/28 09:03:39;;;;;;;;;;;7.60;91.40;;;;;;5038954;28;19948;-73
2021/12/28 09:06:05;;;;;;;;;;;7.70;91.70;;;;;;5029870;28;19943;-73
2021/12/28 09:08:31;;;;;;;;;;;7.70;91.60;;;;;;5026914;28;19938;-73
2021/12/28 09:10:57;;;;;;;;;;;7.70;91.60;;;;;;5038023;28;20085;-73
2021/12/28 09:13:22;;;;;;;;;;;7.60;91.90;;;;;;5029645;28;19975;-73
2021/12/28 09:15:48;;;;;;;;;;;7.60;92.20;;;;;;5038696;28;19981;-74
2021/12/28 09:18:14;;;;;;;;;;;7.70;92.20;;;;;;5065201;28;19939;-73
2021/12/28 09:20:39;;;;;;;;;;;7.80;92.00;;;;;;5063602;28;19942;-73
2021/12/28 09:23:09;;;;;;;;;;;7.90;92.00;;;;;;5029199;28;19989;-73
2021/12/28 09:25:35;;;;;;;;;;;8.00;91.90;;;;;;5029411;28;19982;-73
2021/12/28 09:28:00;;;;;;;;;;;8.20;91.70;;;;;;5028425;28;20351;-73
2021/12/28 09:30:26;;;;;;;;;;;8.30;90.60;;;;;;5031079;28;19950;-73
2021/12/28 09:32:52;;;;;;;;;;;8.30;90.40;;;;;;5063468;28;20038;-73
2021/12/28 09:35:18;;;;;;;;;;;8.20;90.50;;;;;;5049073;28;20034;-72
2021/12/28 09:37:43;;;;;;;;;;;8.20;90.70;;;;;;5068262;28;20296;-73
2021/12/28 09:40:11;;;;;;;;;;;8.20;90.90;;;;;;5044935;28;20372;-72
2021/12/28 09:42:37;;;;;;;;;;;8.20;91.10;;;;;;5033922;28;19948;-73
2021/12/28 09:45:03;;;;;;;;;;;8.10;90.90;;;;;;5054977;28;20406;-73
2021/12/28 09:47:29;;;;;;;;;;;8.10;91.10;;;;;;5067060;28;19972;-73
2021/12/28 09:49:54;;;;;;;;;;;8.00;91.50;;;;;;5067661;28;19993;-73
2021/12/28 09:52:20;;;;;;;;;;;8.00;91.80;;;;;;5069278;28;19932;-73
2021/12/28 09:54:46;;;;;;;;;;;8.10;92.00;;;;;;5057253;28;19957;-73
2021/12/28 09:57:15;;;;;;;;;;;8.20;91.90;;;;;;5057526;28;20330;-73
2021/12/28 09:59:41;;;;;;;;;;;8.20;92.00;;;;;;5069338;28;19953;-73
2021/12/28 10:02:10;;;;;;;;;;;8.40;91.80;;;;;;5068007;28;19938;-73
2021/12/28 10:04:56;;;;;;;;;;;8.40;91.50;;;;;;5065222;28;19949;-73
2021/12/28 10:07:23;;;;;;;;;;;8.50;91.40;;;;;;5036069;28;20138;-73
2021/12/28 10:09:49;;;;;;;;;;;8.60;91.20;;;;;;5051249;28;19943;-73
2021/12/28 10:12:32;;;;;;;;;;;8.60;90.80;;;;;;5067683;28;20350;-72
2021/12/28 10:15:00;;;;;;;;;;;8.70;90.80;;;;;;5047073;28;20002;-72
2021/12/28 10:17:27;;;;;;;;;;;8.70;90.80;;;;;;5048683;28;20477;-73
2021/12/28 10:19:53;;;;;;;;;;;8.70;90.90;;;;;;5049967;28;19944;-73
2021/12/28 10:22:39;;;;;;;;;;;8.50;90.70;;;;;;5055687;28;19982;-73
2021/12/28 10:25:07;;;;;;;;;;;8.50;91.00;;;;;;5055085;28;19933;-73
2021/12/28 10:27:33;;;;;;;;;;;8.60;90.90;;;;;;5054891;28;19940;-73
2021/12/28 10:30:26;;;;;;;;;;;8.70;90.70;;;;;;5039911;28;19976;-74
2021/12/28 10:32:59;;;;;;;;;;;8.70;90.40;;;;;;5017946;28;19950;-74
2021/12/28 10:35:28;;;;;;;;;;;8.80;90.60;;;;;;5044377;28;19948;-74
2021/12/28 10:38:03;;;;;;;;;;;9.00;90.10;;;;;;5027557;28;19937;-73
2021/12/28 10:40:31;;;;;;;;;;;8.90;89.50;;;;;;5039038;28;19949;-74
2021/12/28 10:42:59;;;;;;;;;;;8.90;89.80;;;;;;5039415;28;20005;-74
2021/12/28 10:45:27;;;;;;;;;;;8.90;89.80;;;;;;5036520;28;19951;-74
2021/12/28 10:47:53;;;;;;;;;;;8.80;90.10;;;;;;5053569;28;20034;-74
2021/12/28 10:50:26;;;;;;;;;;;8.90;90.10;;;;;;5046659;28;19943;-74
2021/12/28 10:53:03;;;;;;;;;;;8.90;89.90;;;;;;5043873;28;19938;-74
2021/12/28 10:55:29;;;;;;;;;;;8.80;89.80;;;;;;5048994;28;19949;-74
2021/12/28 10:57:54;;;;;;;;;;;8.90;90.40;;;;;;5051347;28;19992;-77
2021/12/28 11:00:28;;;;;;;;;;;9.10;90.40;;;;;;5036667;28;19947;-74
2021/12/28 11:03:13;;;;;;;;;;;9.10;89.80;;;;;;5045706;28;19949;-74
2021/12/28 11:05:38;;;;;;;;;;;9.20;89.90;;;;;;5054680;28;19940;-74
2021/12/28 11:08:07;;;;;;;;;;;9.20;89.50;;;;;;5030225;28;19942;-74
2021/12/28 11:10:33;;;;;;;;;;;9.20;89.50;;;;;;5043132;28;19946;-74
2021/12/28 11:12:59;;;;;;;;;;;9.10;89.60;;;;;;5045865;28;19956;-74
2021/12/28 11:15:25;;;;;;;;;;;9.20;89.80;;;;;;5045418;28;19950;-74
2021/12/28 11:17:51;;;;;;;;;;;9.20;89.20;;;;;;5047425;28;19937;-74
2021/12/28 11:20:16;;;;;;;;;;;9.20;89.30;;;;;;5047260;28;20198;-74
2021/12/28 11:23:02;;;;;;;;;;;9.10;89.30;;;;;;5050503;28;20403;-74
2021/12/28 11:25:30;;;;;;;;;;;9.10;89.60;;;;;;5058512;28;19943;-74
2021/12/28 11:28:14;;;;;;;;;;;9.10;89.80;;;;;;5058156;28;20040;-74
2021/12/28 11:30:40;;;;;;;;;;;9.10;89.70;;;;;;5053637;28;19956;-74
2021/12/28 11:33:07;;;;;;;;;;;9.20;89.30;;;;;;5039237;28;19997;-74
2021/12/28 11:35:33;;;;;;;;;;;9.30;89.40;;;;;;5046740;28;19948;-74
2021/12/28 11:37:59;;;;;;;;;;;9.40;88.70;;;;;;5044997;28;19959;-74
2021/12/28 11:40:25;;;;;;;;;;;9.40;88.50;;;;;;5045887;28;20289;-74
2021/12/28 11:42:51;;;;;;;;;;;9.50;88.20;;;;;;5046435;28;19944;-74
2021/12/28 11:45:19;;;;;;;;;;;9.60;88.00;;;;;;5046712;28;20344;-74
2021/12/28 11:47:45;;;;;;;;;;;9.60;87.70;;;;;;5045298;28;19933;-74
2021/12/28 11:50:11;;;;;;;;;;;9.60;88.10;;;;;;5046663;28;19942;-74
2021/12/28 11:52:37;;;;;;;;;;;9.70;88.20;;;;;;5046266;28;19950;-74
2021/12/28 11:55:02;;;;;;;;;;;9.70;88.00;;;;;;5046325;28;19930;-74
2021/12/28 11:57:30;;;;;;;;;;;9.80;88.20;;;;;;5046217;28;19939;-74
2021/12/28 12:00:07;;;;;;;;;;;9.80;87.90;;;;;;5061538;28;20408;-74
2021/12/28 12:02:43;;;;;;;;;;;9.80;87.60;;;;;;5029303;28;19938;-74
2021/12/28 12:05:13;;;;;;;;;;;9.80;86.70;;;;;;5066665;28;19986;-74
2021/12/28 12:07:39;;;;;;;;;;;9.70;86.60;;;;;;5056445;28;19941;-74
2021/12/28 12:10:09;;;;;;;;;;;9.70;87.10;;;;;;5050870;28;19939;-73
2021/12/28 12:12:35;;;;;;;;;;;9.60;87.40;;;;;;5061261;28;19944;-73
2021/12/28 12:15:03;;;;;;;;;;;9.60;87.10;;;;;;5069311;28;19945;-74
2021/12/28 12:19:55;;;;;;;;;;;9.50;87.30;;;;;;5070646;28;19935;-74
2021/12/28 12:22:30;;;;;;;;;;;9.50;87.60;;;;;;5053232;28;20294;-74
2021/12/28 12:24:59;;;;;;;;;;;9.60;87.40;;;;;;5050458;28;19932;-74
2021/12/28 12:27:37;;;;;;;;;;;9.60;87.20;;;;;;5050382;28;19991;-74
2021/12/28 12:30:03;;;;;;;;;;;9.60;87.20;;;;;;5049471;28;20313;-74
2021/12/28 12:32:47;;;;;;;;;;;9.60;87.20;;;;;;5045309;28;19935;-74
2021/12/28 12:35:33;;;;;;;;;;;9.60;87.00;;;;;;5031270;28;19987;-74
2021/12/28 12:37:59;;;;;;;;;;;9.60;87.70;;;;;;5048599;28;19995;-74
2021/12/28 12:40:44;;;;;;;;;;;9.60;87.10;;;;;;5048764;28;20036;-74
2021/12/28 12:43:11;;;;;;;;;;;9.60;87.00;;;;;;5051193;28;19938;-73
2021/12/28 12:45:52;;;;;;;;;;;9.60;87.70;;;;;;5030375;28;20318;-74
2021/12/28 12:48:53;;;;;;;;;;;9.50;88.20;;;;;;5039901;28;19981;-74
2021/12/28 12:51:18;;;;;;;;;;;9.60;87.70;;;;;;5049085;28;20015;-74
2021/12/28 12:53:45;;;;;;;;;;;9.80;87.50;;;;;;5049441;28;19938;-74
2021/12/28 12:56:12;;;;;;;;;;;9.90;87.40;;;;;;5049800;28;19961;-74
2021/12/28 12:58:41;;;;;;;;;;;10.10;86.40;;;;;;5043908;28;20013;-74
2021/12/28 13:01:17;;;;;;;;;;;10.10;85.70;;;;;;5047542;28;20417;-74
2021/12/28 13:03:43;;;;;;;;;;;10.20;85.50;;;;;;5050118;28;19934;-74
2021/12/28 13:06:08;;;;;;;;;;;10.00;86.10;;;;;;5036183;28;19957;-73
2021/12/28 13:10:23;;;;;;;;;;;9.80;86.20;;;;;;5106323;27;19956;-69
2021/12/28 13:12:54;;;;;;;;;;;9.70;86.50;;;;;;5094922;28;19940;-70
2021/12/28 13:15:20;;;;;;;;;;;9.60;87.00;;;;;;5084648;28;19958;-69
2021/12/28 13:17:47;;;;;;;;;;;9.50;87.10;;;;;;5086171;28;19936;-69
2021/12/28 13:20:20;;;;;;;;;;;9.60;87.60;;;;;;5084030;28;19995;-66
2021/12/28 13:22:50;;;;;;;;;;;9.50;87.80;;;;;;5087230;28;20034;-73
2021/12/28 13:25:19;;;;;;;;;;;9.50;88.00;;;;;;5096161;28;19957;-70
2021/12/28 13:27:45;;;;;;;;;;;9.50;88.40;;;;;;5079390;28;19955;-74
2021/12/28 13:30:12;;;;;;;;;;;9.40;89.30;;;;;;5090749;28;20297;-71
2021/12/28 13:32:39;;;;;;;;;;;9.40;89.90;;;;;;5095166;28;19955;-71
2021/12/28 13:35:07;;;;;;;;;;;9.30;90.00;;;;;;5091872;28;20516;-71
2021/12/28 13:37:35;;;;;;;;;;;9.10;90.50;;;;;;5083930;28;20078;-70
2021/12/28 13:40:03;;;;;;;;;;;9.10;90.90;;;;;;5082417;28;19972;-68
2021/12/28 13:42:29;;;;;;;;;;;9.00;90.80;;;;;;5084034;28;20003;-73
2021/12/28 13:44:54;;;;;;;;;;;9.00;91.20;;;;;;5082885;28;19967;-73
2021/12/28 13:47:21;;;;;;;;;;;8.90;91.10;;;;;;5085106;28;20474;-72
2021/12/28 13:50:04;;;;;;;;;;;8.90;91.50;;;;;;5088556;28;20017;-72
2021/12/28 13:52:39;;;;;;;;;;;8.90;91.60;;;;;;5082333;28;19982;-71
2021/12/28 13:55:05;;;;;;;;;;;8.90;91.50;;;;;;5086781;28;19957;-70
2021/12/28 13:57:32;;;;;;;;;;;8.80;91.60;;;;;;5087960;28;19945;-72
2021/12/28 13:59:57;;;;;;;;;;;8.80;91.50;;;;;;5089548;28;19942;-71
2021/12/28 14:02:23;;;;;;;;;;;8.80;91.70;;;;;;5092977;28;20050;-70
2021/12/28 14:04:48;;;;;;;;;;;8.70;91.90;;;;;;5087400;28;20083;-71
2021/12/28 14:07:15;;;;;;;;;;;8.70;92.00;;;;;;5088854;28;19956;-72
2021/12/28 14:09:40;;;;;;;;;;;8.70;92.00;;;;;;5084354;28;19981;-72
2021/12/28 14:12:09;;;;;;;;;;;8.80;91.90;;;;;;5083013;28;20388;-73
2021/12/28 14:14:37;;;;;;;;;;;8.80;91.80;;;;;;5092212;28;19945;-74
2021/12/28 14:17:14;;;;;;;;;;;8.70;92.00;;;;;;5086823;28;19952;-74
2021/12/28 14:19:41;;;;;;;;;;;8.70;92.10;;;;;;5080415;28;19943;-74
2021/12/28 14:22:11;;;;;;;;;;;8.70;92.50;;;;;;5060194;28;20375;-72
2021/12/28 14:24:36;;;;;;;;;;;8.80;92.30;;;;;;5070484;28;19943;-72
2021/12/28 14:27:02;;;;;;;;;;;8.80;92.20;;;;;;5072141;28;19955;-73
2021/12/28 14:29:29;;;;;;;;;;;8.70;91.90;;;;;;5074492;28;19972;-71
2021/12/28 14:31:55;;;;;;;;;;;8.70;92.00;;;;;;5068114;28;19949;-71
2021/12/28 14:34:35;;;;;;;;;;;8.70;92.30;;;;;;5067161;28;20151;-72
2021/12/28 14:37:04;;;;;;;;;;;8.70;92.30;;;;;;5068642;28;19942;-74
2021/12/28 14:39:37;;;;;;;;;;;8.70;92.50;;;;;;5066343;28;19948;-72